Quinsam, Canada
Current Conditions -  °F | °C
As of 4:00 PM on Saturday 25 Oct 2014 (Local Time) from CYBL Reporting Station
Light Rain Light Rain  
Wind Chill: 40°   Ceiling: 1100
Heat Index: 43°   Visibility: 2mi
Dew Point: 43°   Wind: 5mph
Humidity: 100%   Direction: 300°WNW
Pressure: 29.36"   Gusts: NA
Location:  49.98°N, 125.43°W
Report Text: CYBL 252300Z 30004KT 2SM -RA BR SCT006 OVC011 06/06 A2936 RMK SF4SC4 SLP945
Loading
Personal Weather Stations






























Interactive Weather Map
Tropical Storm Tracking
New forecast layout! Learn more

10-Day Weather Forecast

Advertisements
Track Severe Weather on mobile